sensor_id;sensor_type;location;lat;lon;timestamp;pressure;altitude;pressure_sealevel;temperature;humidity
76728;BME280;65652;53.132;18.026;2023-04-12T00:00:03;100555.16;;;7.74;78.41
76728;BME280;65652;53.132;18.026;2023-04-12T00:02:51;100562.42;;;7.71;78.67
76728;BME280;65652;53.132;18.026;2023-04-12T00:05:22;100558.07;;;7.68;78.71
76728;BME280;65652;53.132;18.026;2023-04-12T00:07:52;100556.05;;;7.65;78.69
76728;BME280;65652;53.132;18.026;2023-04-12T00:10:20;100551.63;;;7.63;78.89
76728;BME280;65652;53.132;18.026;2023-04-12T00:12:47;100553.45;;;7.58;79.27
76728;BME280;65652;53.132;18.026;2023-04-12T00:15:14;100556.98;;;7.53;79.26
76728;BME280;65652;53.132;18.026;2023-04-12T00:17:40;100559.18;;;7.52;79.26
76728;BME280;65652;53.132;18.026;2023-04-12T00:20:07;100556.48;;;7.50;79.44
76728;BME280;65652;53.132;18.026;2023-04-12T00:22:38;100555.79;;;7.45;80.05
76728;BME280;65652;53.132;18.026;2023-04-12T00:25:04;100555.03;;;7.42;80.05
76728;BME280;65652;53.132;18.026;2023-04-12T00:27:30;100554.49;;;7.37;80.43
76728;BME280;65652;53.132;18.026;2023-04-12T00:29:56;100553.86;;;7.34;80.27
76728;BME280;65652;53.132;18.026;2023-04-12T00:32:23;100554.05;;;7.30;80.75
76728;BME280;65652;53.132;18.026;2023-04-12T00:34:50;100556.30;;;7.25;80.51
76728;BME280;65652;53.132;18.026;2023-04-12T00:37:18;100550.80;;;7.24;80.36
76728;BME280;65652;53.132;18.026;2023-04-12T00:39:45;100547.69;;;7.23;80.33
76728;BME280;65652;53.132;18.026;2023-04-12T00:42:11;100542.05;;;7.23;80.19
76728;BME280;65652;53.132;18.026;2023-04-12T00:44:37;100541.07;;;7.22;80.24
76728;BME280;65652;53.132;18.026;2023-04-12T00:47:04;100541.70;;;7.21;80.23
76728;BME280;65652;53.132;18.026;2023-04-12T00:49:32;100545.02;;;7.21;80.08
76728;BME280;65652;53.132;18.026;2023-04-12T00:52:00;100543.71;;;7.20;80.17
76728;BME280;65652;53.132;18.026;2023-04-12T00:54:30;100542.09;;;7.18;79.97
76728;BME280;65652;53.132;18.026;2023-04-12T00:56:58;100539.19;;;7.17;79.79
76728;BME280;65652;53.132;18.026;2023-04-12T00:59:25;100534.92;;;7.15;79.83
76728;BME280;65652;53.132;18.026;2023-04-12T01:01:52;100533.98;;;7.12;80.01
76728;BME280;65652;53.132;18.026;2023-04-12T01:04:19;100533.39;;;7.08;79.80
76728;BME280;65652;53.132;18.026;2023-04-12T01:12:46;100534.11;;;6.96;80.01
76728;BME280;65652;53.132;18.026;2023-04-12T01:15:17;100530.48;;;6.93;80.14
76728;BME280;65652;53.132;18.026;2023-04-12T01:17:58;100530.85;;;6.90;80.10
76728;BME280;65652;53.132;18.026;2023-04-12T01:20:35;100530.99;;;6.91;80.05
76728;BME280;65652;53.132;18.026;2023-04-12T01:25:44;100529.11;;;6.90;80.15
76728;BME280;65652;53.132;18.026;2023-04-12T01:28:22;100529.35;;;6.92;79.98
76728;BME280;65652;53.132;18.026;2023-04-12T01:30:53;100527.69;;;6.90;80.42
76728;BME280;65652;53.132;18.026;2023-04-12T01:33:21;100529.46;;;6.90;80.15
76728;BME280;65652;53.132;18.026;2023-04-12T01:35:49;100526.98;;;6.91;79.99
76728;BME280;65652;53.132;18.026;2023-04-12T01:38:17;100531.90;;;6.90;80.24
76728;BME280;65652;53.132;18.026;2023-04-12T01:40:43;100526.85;;;6.90;79.85
76728;BME280;65652;53.132;18.026;2023-04-12T01:43:12;100530.82;;;6.89;79.96
76728;BME280;65652;53.132;18.026;2023-04-12T01:45:40;100529.16;;;6.87;79.95
76728;BME280;65652;53.132;18.026;2023-04-12T01:48:08;100529.73;;;6.87;79.84
76728;BME280;65652;53.132;18.026;2023-04-12T01:53:20;100533.23;;;6.85;80.05
76728;BME280;65652;53.132;18.026;2023-04-12T01:55:48;100535.21;;;6.84;79.96
76728;BME280;65652;53.132;18.026;2023-04-12T01:58:19;100538.92;;;6.86;80.12
76728;BME280;65652;53.132;18.026;2023-04-12T02:00:49;100545.64;;;6.88;79.96
76728;BME280;65652;53.132;18.026;2023-04-12T02:03:18;100543.27;;;6.87;79.75
76728;BME280;65652;53.132;18.026;2023-04-12T02:05:46;100540.30;;;6.84;79.86
76728;BME280;65652;53.132;18.026;2023-04-12T02:08:13;100542.31;;;6.80;79.98
76728;BME280;65652;53.132;18.026;2023-04-12T02:10:39;100543.83;;;6.77;79.91
76728;BME280;65652;53.132;18.026;2023-04-12T02:13:05;100545.48;;;6.73;80.07
76728;BME280;65652;53.132;18.026;2023-04-12T02:15:32;100544.27;;;6.71;80.02
76728;BME280;65652;53.132;18.026;2023-04-12T02:17:59;100546.38;;;6.68;80.05
76728;BME280;65652;53.132;18.026;2023-04-12T02:20:25;100545.65;;;6.66;80.13
76728;BME280;65652;53.132;18.026;2023-04-12T02:22:52;100543.86;;;6.67;79.96
76728;BME280;65652;53.132;18.026;2023-04-12T02:25:18;100543.87;;;6.67;80.06
76728;BME280;65652;53.132;18.026;2023-04-12T02:27:45;100541.56;;;6.67;79.90
76728;BME280;65652;53.132;18.026;2023-04-12T02:30:14;100538.33;;;6.68;80.13
76728;BME280;65652;53.132;18.026;2023-04-12T02:32:41;100543.81;;;6.70;80.30
76728;BME280;65652;53.132;18.026;2023-04-12T02:35:13;100546.61;;;6.72;80.05
76728;BME280;65652;53.132;18.026;2023-04-12T02:37:46;100547.64;;;6.75;79.98
76728;BME280;65652;53.132;18.026;2023-04-12T02:40:13;100547.48;;;6.77;79.98
76728;BME280;65652;53.132;18.026;2023-04-12T02:42:43;100546.02;;;6.80;80.08
76728;BME280;65652;53.132;18.026;2023-04-12T02:45:11;100538.98;;;6.80;80.02
76728;BME280;65652;53.132;18.026;2023-04-12T02:47:37;100543.20;;;6.80;80.12
76728;BME280;65652;53.132;18.026;2023-04-12T02:50:06;100544.09;;;6.80;80.20
76728;BME280;65652;53.132;18.026;2023-04-12T02:52:35;100543.86;;;6.81;80.21
76728;BME280;65652;53.132;18.026;2023-04-12T02:55:06;100547.48;;;6.82;80.13
76728;BME280;65652;53.132;18.026;2023-04-12T02:57:32;100550.15;;;6.81;79.96
76728;BME280;65652;53.132;18.026;2023-04-12T02:59:58;100546.94;;;6.82;79.90
76728;BME280;65652;53.132;18.026;2023-04-12T03:02:32;100545.08;;;6.81;80.20
76728;BME280;65652;53.132;18.026;2023-04-12T03:05:01;100541.98;;;6.80;79.95
76728;BME280;65652;53.132;18.026;2023-04-12T03:07:34;100541.52;;;6.79;79.95
76728;BME280;65652;53.132;18.026;2023-04-12T03:10:01;100539.27;;;6.79;79.99
76728;BME280;65652;53.132;18.026;2023-04-12T03:12:30;100530.24;;;6.78;80.15
76728;BME280;65652;53.132;18.026;2023-04-12T03:15:22;100527.77;;;6.76;80.24
76728;BME280;65652;53.132;18.026;2023-04-12T03:17:50;100527.36;;;6.74;80.44
76728;BME280;65652;53.132;18.026;2023-04-12T03:20:18;100527.45;;;6.73;80.10
76728;BME280;65652;53.132;18.026;2023-04-12T03:22:54;100531.52;;;6.74;80.15
76728;BME280;65652;53.132;18.026;2023-04-12T03:25:21;100530.65;;;6.77;80.23
76728;BME280;65652;53.132;18.026;2023-04-12T03:27:52;100526.98;;;6.79;80.15
76728;BME280;65652;53.132;18.026;2023-04-12T03:30:20;100522.94;;;6.81;79.99
76728;BME280;65652;53.132;18.026;2023-04-12T03:32:46;100528.90;;;6.84;79.97
76728;BME280;65652;53.132;18.026;2023-04-12T03:35:12;100526.98;;;6.86;80.02
76728;BME280;65652;53.132;18.026;2023-04-12T03:37:41;100524.95;;;6.87;79.92
76728;BME280;65652;53.132;18.026;2023-04-12T03:40:08;100529.27;;;6.88;79.96
76728;BME280;65652;53.132;18.026;2023-04-12T03:42:56;100531.35;;;6.89;79.84
76728;BME280;65652;53.132;18.026;2023-04-12T03:45:23;100534.40;;;6.85;79.95
76728;BME280;65652;53.132;18.026;2023-04-12T03:47:50;100533.27;;;6.84;79.95
76728;BME280;65652;53.132;18.026;2023-04-12T03:50:17;100536.02;;;6.83;80.03
76728;BME280;65652;53.132;18.026;2023-04-12T03:52:48;100529.42;;;6.82;80.04
76728;BME280;65652;53.132;18.026;2023-04-12T03:55:15;100524.83;;;6.82;80.10
76728;BME280;65652;53.132;18.026;2023-04-12T03:57:43;100528.02;;;6.82;80.20
76728;BME280;65652;53.132;18.026;2023-04-12T04:00:10;100528.05;;;6.81;80.14
76728;BME280;65652;53.132;18.026;2023-04-12T04:02:56;100534.05;;;6.80;80.14
76728;BME280;65652;53.132;18.026;2023-04-12T04:05:23;100532.83;;;6.81;80.27
76728;BME280;65652;53.132;18.026;2023-04-12T04:07:50;100531.44;;;6.78;80.59
76728;BME280;65652;53.132;18.026;2023-04-12T04:10:16;100529.16;;;6.78;80.24
76728;BME280;65652;53.132;18.026;2023-04-12T04:12:43;100527.69;;;6.79;80.15
76728;BME280;65652;53.132;18.026;2023-04-12T04:15:10;100526.76;;;6.80;80.49
76728;BME280;65652;53.132;18.026;2023-04-12T04:17:37;100527.44;;;6.80;80.36
76728;BME280;65652;53.132;18.026;2023-04-12T04:20:04;100530.91;;;6.80;80.53
76728;BME280;65652;53.132;18.026;2023-04-12T04:22:30;100532.20;;;6.80;80.58
76728;BME280;65652;53.132;18.026;2023-04-12T04:24:58;100532.80;;;6.79;80.51
76728;BME280;65652;53.132;18.026;2023-04-12T04:27:27;100535.08;;;6.81;80.59
76728;BME280;65652;53.132;18.026;2023-04-12T04:29:55;100535.94;;;6.81;80.72
76728;BME280;65652;53.132;18.026;2023-04-12T04:32:25;100535.45;;;6.81;80.63
76728;BME280;65652;53.132;18.026;2023-04-12T04:34:55;100534.73;;;6.83;80.50
76728;BME280;65652;53.132;18.026;2023-04-12T04:37:27;100531.89;;;6.86;80.29
76728;BME280;65652;53.132;18.026;2023-04-12T04:39:55;100530.32;;;6.86;80.56
76728;BME280;65652;53.132;18.026;2023-04-12T04:42:22;100527.23;;;6.87;80.56
76728;BME280;65652;53.132;18.026;2023-04-12T04:44:57;100537.88;;;6.91;80.61
76728;BME280;65652;53.132;18.026;2023-04-12T04:47:32;100534.53;;;6.90;80.49
76728;BME280;65652;53.132;18.026;2023-04-12T04:49:58;100538.85;;;6.92;80.36
76728;BME280;65652;53.132;18.026;2023-04-12T04:52:26;100537.98;;;6.94;80.33
76728;BME280;65652;53.132;18.026;2023-04-12T04:54:55;100535.50;;;6.99;80.34
76728;BME280;65652;53.132;18.026;2023-04-12T04:57:23;100537.77;;;7.01;80.25
76728;BME280;65652;53.132;18.026;2023-04-12T04:59:50;100538.30;;;7.01;80.23
76728;BME280;65652;53.132;18.026;2023-04-12T05:02:16;100538.91;;;7.02;80.34
76728;BME280;65652;53.132;18.026;2023-04-12T05:04:43;100540.34;;;7.04;80.18
76728;BME280;65652;53.132;18.026;2023-04-12T05:07:10;100541.48;;;7.08;80.26
76728;BME280;65652;53.132;18.026;2023-04-12T05:09:40;100538.96;;;7.13;80.17
76728;BME280;65652;53.132;18.026;2023-04-12T05:12:06;100537.40;;;7.20;80.16
76728;BME280;65652;53.132;18.026;2023-04-12T05:14:33;100540.29;;;7.26;80.20
76728;BME280;65652;53.132;18.026;2023-04-12T05:17:00;100545.30;;;7.29;80.05
76728;BME280;65652;53.132;18.026;2023-04-12T05:19:26;100544.97;;;7.31;80.02
76728;BME280;65652;53.132;18.026;2023-04-12T05:21:53;100540.38;;;7.31;79.96
76728;BME280;65652;53.132;18.026;2023-04-12T05:24:20;100533.60;;;7.30;79.92
76728;BME280;65652;53.132;18.026;2023-04-12T05:26:46;100534.70;;;7.34;80.11
76728;BME280;65652;53.132;18.026;2023-04-12T05:29:12;100530.02;;;7.40;79.97
76728;BME280;65652;53.132;18.026;2023-04-12T05:31:39;100528.23;;;7.50;79.76
76728;BME280;65652;53.132;18.026;2023-04-12T05:34:08;100526.70;;;7.58;79.73
76728;BME280;65652;53.132;18.026;2023-04-12T05:36:38;100528.52;;;7.69;79.57
76728;BME280;65652;53.132;18.026;2023-04-12T05:39:04;100529.46;;;7.79;79.55
76728;BME280;65652;53.132;18.026;2023-04-12T05:41:32;100531.11;;;7.91;79.42
76728;BME280;65652;53.132;18.026;2023-04-12T05:43:58;100530.64;;;8.06;79.21
76728;BME280;65652;53.132;18.026;2023-04-12T05:46:25;100527.73;;;8.20;79.09
76728;BME280;65652;53.132;18.026;2023-04-12T05:48:51;100525.80;;;8.35;78.81
76728;BME280;65652;53.132;18.026;2023-04-12T05:51:17;100524.55;;;8.51;78.64
76728;BME280;65652;53.132;18.026;2023-04-12T05:53:44;100521.94;;;8.61;78.65
76728;BME280;65652;53.132;18.026;2023-04-12T05:56:11;100526.66;;;8.72;78.35
76728;BME280;65652;53.132;18.026;2023-04-12T05:58:37;100527.70;;;8.81;77.94
76728;BME280;65652;53.132;18.026;2023-04-12T06:01:04;100530.08;;;8.90;78.01
76728;BME280;65652;53.132;18.026;2023-04-12T06:03:31;100527.30;;;8.96;77.57
76728;BME280;65652;53.132;18.026;2023-04-12T06:06:05;100526.67;;;9.01;77.35
76728;BME280;65652;53.132;18.026;2023-04-12T06:08:31;100529.02;;;9.05;77.47
76728;BME280;65652;53.132;18.026;2023-04-12T06:10:57;100531.56;;;9.10;77.23
76728;BME280;65652;53.132;18.026;2023-04-12T06:13:25;100534.05;;;9.16;77.17
76728;BME280;65652;53.132;18.026;2023-04-12T06:15:52;100534.92;;;9.16;77.00
76728;BME280;65652;53.132;18.026;2023-04-12T06:18:19;100535.52;;;9.15;76.88
76728;BME280;65652;53.132;18.026;2023-04-12T06:20:45;100533.56;;;9.17;76.85
76728;BME280;65652;53.132;18.026;2023-04-12T06:23:12;100530.66;;;9.21;76.79
76728;BME280;65652;53.132;18.026;2023-04-12T06:25:38;100525.02;;;9.23;76.73
76728;BME280;65652;53.132;18.026;2023-04-12T06:28:04;100523.02;;;9.24;76.37
76728;BME280;65652;53.132;18.026;2023-04-12T06:30:35;100521.91;;;9.22;76.62
76728;BME280;65652;53.132;18.026;2023-04-12T06:33:02;100520.69;;;9.22;76.66
76728;BME280;65652;53.132;18.026;2023-04-12T06:35:28;100521.48;;;9.23;76.43
76728;BME280;65652;53.132;18.026;2023-04-12T06:37:55;100524.33;;;9.27;76.40
76728;BME280;65652;53.132;18.026;2023-04-12T06:40:21;100525.47;;;9.26;76.00
76728;BME280;65652;53.132;18.026;2023-04-12T06:42:47;100527.16;;;9.20;76.13
76728;BME280;65652;53.132;18.026;2023-04-12T06:45:20;100524.66;;;9.18;76.05
76728;BME280;65652;53.132;18.026;2023-04-12T06:47:46;100521.73;;;9.16;76.22
76728;BME280;65652;53.132;18.026;2023-04-12T06:50:12;100519.91;;;9.17;76.20
76728;BME280;65652;53.132;18.026;2023-04-12T06:52:38;100519.65;;;9.17;76.06
76728;BME280;65652;53.132;18.026;2023-04-12T06:55:05;100522.27;;;9.22;75.96
76728;BME280;65652;53.132;18.026;2023-04-12T06:57:32;100518.92;;;9.28;76.20
76728;BME280;65652;53.132;18.026;2023-04-12T06:59:58;100516.42;;;9.37;76.15
76728;BME280;65652;53.132;18.026;2023-04-12T07:02:24;100512.65;;;9.48;75.94
76728;BME280;65652;53.132;18.026;2023-04-12T07:04:53;100509.88;;;9.59;75.64
76728;BME280;65652;53.132;18.026;2023-04-12T07:07:20;100507.39;;;9.67;75.69
76728;BME280;65652;53.132;18.026;2023-04-12T07:09:46;100509.51;;;9.76;75.22
76728;BME280;65652;53.132;18.026;2023-04-12T07:12:12;100511.58;;;9.82;74.94
76728;BME280;65652;53.132;18.026;2023-04-12T07:14:39;100511.15;;;9.87;74.85
76728;BME280;65652;53.132;18.026;2023-04-12T07:17:05;100512.66;;;9.92;74.79
76728;BME280;65652;53.132;18.026;2023-04-12T07:19:31;100511.59;;;9.94;74.51
76728;BME280;65652;53.132;18.026;2023-04-12T07:21:57;100511.85;;;9.99;74.42
76728;BME280;65652;53.132;18.026;2023-04-12T07:24:23;100515.66;;;10.06;74.51
76728;BME280;65652;53.132;18.026;2023-04-12T07:26:52;100519.28;;;10.13;74.26
76728;BME280;65652;53.132;18.026;2023-04-12T07:29:19;100517.78;;;10.18;74.14
76728;BME280;65652;53.132;18.026;2023-04-12T07:31:45;100512.08;;;10.21;73.55
76728;BME280;65652;53.132;18.026;2023-04-12T07:34:12;100510.31;;;10.18;73.39
76728;BME280;65652;53.132;18.026;2023-04-12T07:36:38;100508.92;;;10.18;73.45
76728;BME280;65652;53.132;18.026;2023-04-12T07:39:04;100513.18;;;10.20;73.50
76728;BME280;65652;53.132;18.026;2023-04-12T07:41:30;100508.73;;;10.24;73.66
76728;BME280;65652;53.132;18.026;2023-04-12T07:43:56;100510.05;;;10.29;73.63
76728;BME280;65652;53.132;18.026;2023-04-12T07:46:22;100506.42;;;10.36;73.79
76728;BME280;65652;53.132;18.026;2023-04-12T07:48:50;100502.44;;;10.47;73.18
76728;BME280;65652;53.132;18.026;2023-04-12T07:51:16;100501.61;;;10.62;73.04
76728;BME280;65652;53.132;18.026;2023-04-12T07:53:42;100495.38;;;10.64;72.47
76728;BME280;65652;53.132;18.026;2023-04-12T07:56:13;100494.74;;;10.64;72.71
76728;BME280;65652;53.132;18.026;2023-04-12T07:58:40;100495.83;;;10.65;72.04
76728;BME280;65652;53.132;18.026;2023-04-12T08:01:06;100496.33;;;10.64;71.99
76728;BME280;65652;53.132;18.026;2023-04-12T08:03:32;100495.85;;;10.65;71.98
76728;BME280;65652;53.132;18.026;2023-04-12T08:05:58;100495.38;;;10.72;72.25
76728;BME280;65652;53.132;18.026;2023-04-12T08:08:24;100490.35;;;10.79;72.19
76728;BME280;65652;53.132;18.026;2023-04-12T08:10:51;100491.21;;;10.87;72.08
76728;BME280;65652;53.132;18.026;2023-04-12T08:13:18;100487.28;;;10.93;71.31
76728;BME280;65652;53.132;18.026;2023-04-12T08:15:44;100488.00;;;10.95;71.31
76728;BME280;65652;53.132;18.026;2023-04-12T08:18:12;100486.52;;;10.99;71.43
76728;BME280;65652;53.132;18.026;2023-04-12T08:20:38;100483.58;;;11.06;71.61
76728;BME280;65652;53.132;18.026;2023-04-12T08:23:10;100475.91;;;11.14;70.88
76728;BME280;65652;53.132;18.026;2023-04-12T08:25:37;100475.58;;;11.18;70.60
76728;BME280;65652;53.132;18.026;2023-04-12T08:28:04;100470.70;;;11.24;70.56
76728;BME280;65652;53.132;18.026;2023-04-12T08:30:33;100473.46;;;11.34;70.39
76728;BME280;65652;53.132;18.026;2023-04-12T08:32:59;100472.73;;;11.44;70.90
76728;BME280;65652;53.132;18.026;2023-04-12T08:35:26;100471.98;;;11.50;70.98
76728;BME280;65652;53.132;18.026;2023-04-12T08:37:52;100472.96;;;11.56;71.14
76728;BME280;65652;53.132;18.026;2023-04-12T08:40:18;100470.30;;;11.58;70.84
76728;BME280;65652;53.132;18.026;2023-04-12T08:42:46;100470.35;;;11.62;70.96
76728;BME280;65652;53.132;18.026;2023-04-12T08:45:12;100473.03;;;11.64;70.68
76728;BME280;65652;53.132;18.026;2023-04-12T08:47:43;100469.23;;;11.61;70.31
76728;BME280;65652;53.132;18.026;2023-04-12T08:50:11;100469.02;;;11.55;70.44
76728;BME280;65652;53.132;18.026;2023-04-12T08:52:39;100463.27;;;11.48;70.66
76728;BME280;65652;53.132;18.026;2023-04-12T08:55:07;100467.06;;;11.42;70.86
76728;BME280;65652;53.132;18.026;2023-04-12T08:57:34;100462.45;;;11.38;70.81
76728;BME280;65652;53.132;18.026;2023-04-12T09:00:02;100462.94;;;11.37;70.77
76728;BME280;65652;53.132;18.026;2023-04-12T09:02:29;100464.08;;;11.38;70.77
76728;BME280;65652;53.132;18.026;2023-04-12T09:04:56;100461.88;;;11.39;70.53
76728;BME280;65652;53.132;18.026;2023-04-12T09:07:23;100460.02;;;11.40;69.94
76728;BME280;65652;53.132;18.026;2023-04-12T09:09:53;100462.07;;;11.41;69.52
76728;BME280;65652;53.132;18.026;2023-04-12T09:12:19;100463.90;;;11.40;69.41
76728;BME280;65652;53.132;18.026;2023-04-12T09:15:24;100461.80;;;11.41;69.62
76728;BME280;65652;53.132;18.026;2023-04-12T09:18:08;100458.52;;;11.43;69.33
76728;BME280;65652;53.132;18.026;2023-04-12T09:20:36;100458.29;;;11.45;68.73
76728;BME280;65652;53.132;18.026;2023-04-12T09:23:20;100458.95;;;11.44;68.81
76728;BME280;65652;53.132;18.026;2023-04-12T09:25:47;100458.84;;;11.43;68.80
76728;BME280;65652;53.132;18.026;2023-04-12T09:28:26;100458.31;;;11.41;68.75
76728;BME280;65652;53.132;18.026;2023-04-12T09:30:54;100454.39;;;11.38;68.95
76728;BME280;65652;53.132;18.026;2023-04-12T09:33:34;100455.36;;;11.37;68.88
76728;BME280;65652;53.132;18.026;2023-04-12T09:36:02;100457.75;;;11.30;68.66
76728;BME280;65652;53.132;18.026;2023-04-12T09:38:32;100459.61;;;11.24;68.68
76728;BME280;65652;53.132;18.026;2023-04-12T09:41:18;100459.06;;;11.18;68.67
76728;BME280;65652;53.132;18.026;2023-04-12T09:43:44;100461.26;;;11.12;68.86
76728;BME280;65652;53.132;18.026;2023-04-12T09:46:12;100458.45;;;11.06;68.71
76728;BME280;65652;53.132;18.026;2023-04-12T09:48:40;100462.38;;;11.02;68.67
76728;BME280;65652;53.132;18.026;2023-04-12T09:51:07;100460.25;;;10.98;68.63
76728;BME280;65652;53.132;18.026;2023-04-12T09:53:34;100457.95;;;10.95;68.65
76728;BME280;65652;53.132;18.026;2023-04-12T09:56:04;100461.59;;;10.88;68.75
76728;BME280;65652;53.132;18.026;2023-04-12T09:58:35;100462.37;;;10.82;69.09
76728;BME280;65652;53.132;18.026;2023-04-12T10:01:02;100459.38;;;10.77;68.95
76728;BME280;65652;53.132;18.026;2023-04-12T10:03:32;100457.17;;;10.75;69.06
76728;BME280;65652;53.132;18.026;2023-04-12T10:05:58;100457.30;;;10.72;69.15
76728;BME280;65652;53.132;18.026;2023-04-12T10:08:25;100454.87;;;10.69;68.83
76728;BME280;65652;53.132;18.026;2023-04-12T10:10:52;100457.47;;;10.68;69.00
76728;BME280;65652;53.132;18.026;2023-04-12T10:13:20;100454.36;;;10.67;69.33
76728;BME280;65652;53.132;18.026;2023-04-12T10:15:48;100449.71;;;10.66;69.00
76728;BME280;65652;53.132;18.026;2023-04-12T10:18:17;100445.91;;;10.67;69.08
76728;BME280;65652;53.132;18.026;2023-04-12T10:20:45;100446.74;;;10.67;69.34
76728;BME280;65652;53.132;18.026;2023-04-12T10:23:15;100446.75;;;10.71;69.41
76728;BME280;65652;53.132;18.026;2023-04-12T10:25:44;100438.30;;;10.80;69.98
76728;BME280;65652;53.132;18.026;2023-04-12T10:28:18;100435.34;;;10.91;70.20
76728;BME280;65652;53.132;18.026;2023-04-12T10:30:46;100435.13;;;11.04;70.29
76728;BME280;65652;53.132;18.026;2023-04-12T10:33:19;100435.54;;;11.16;70.03
76728;BME280;65652;53.132;18.026;2023-04-12T10:38:17;100431.55;;;11.31;70.33
76728;BME280;65652;53.132;18.026;2023-04-12T10:41:15;100429.13;;;11.40;70.07
76728;BME280;65652;53.132;18.026;2023-04-12T10:43:49;100427.36;;;11.48;70.23
76728;BME280;65652;53.132;18.026;2023-04-12T10:49:12;100430.67;;;11.66;69.31
76728;BME280;65652;53.132;18.026;2023-04-12T10:51:39;100429.35;;;11.64;68.98
76728;BME280;65652;53.132;18.026;2023-04-12T10:56:51;100420.39;;;11.68;68.90
76728;BME280;65652;53.132;18.026;2023-04-12T10:59:51;100417.66;;;11.73;69.04
76728;BME280;65652;53.132;18.026;2023-04-12T11:02:19;100416.30;;;11.76;68.94
76728;BME280;65652;53.132;18.026;2023-04-12T11:05:16;100409.77;;;11.78;68.35
76728;BME280;65652;53.132;18.026;2023-04-12T11:08:11;100403.41;;;11.79;67.99
76728;BME280;65652;53.132;18.026;2023-04-12T11:10:49;100401.13;;;11.79;67.56
76728;BME280;65652;53.132;18.026;2023-04-12T11:13:26;100399.85;;;11.76;67.45
76728;BME280;65652;53.132;18.026;2023-04-12T11:15:54;100402.52;;;11.72;67.23
76728;BME280;65652;53.132;18.026;2023-04-12T11:18:24;100401.64;;;11.69;67.20
76728;BME280;65652;53.132;18.026;2023-04-12T11:20:51;100397.65;;;11.66;67.16
76728;BME280;65652;53.132;18.026;2023-04-12T11:23:17;100398.04;;;11.65;66.98
76728;BME280;65652;53.132;18.026;2023-04-12T11:25:51;100397.14;;;11.64;67.05
76728;BME280;65652;53.132;18.026;2023-04-12T11:28:20;100393.11;;;11.59;67.16
76728;BME280;65652;53.132;18.026;2023-04-12T11:30:52;100395.54;;;11.54;67.34
76728;BME280;65652;53.132;18.026;2023-04-12T11:33:38;100396.60;;;11.52;67.59
76728;BME280;65652;53.132;18.026;2023-04-12T11:36:06;100397.11;;;11.52;67.60
76728;BME280;65652;53.132;18.026;2023-04-12T11:38:34;100395.66;;;11.47;67.00
76728;BME280;65652;53.132;18.026;2023-04-12T11:41:04;100394.95;;;11.40;67.26
76728;BME280;65652;53.132;18.026;2023-04-12T11:43:35;100387.75;;;11.37;66.78
76728;BME280;65652;53.132;18.026;2023-04-12T11:46:03;100387.29;;;11.40;67.24
76728;BME280;65652;53.132;18.026;2023-04-12T11:48:31;100379.32;;;11.48;67.20
76728;BME280;65652;53.132;18.026;2023-04-12T11:50:57;100380.51;;;11.60;67.11
76728;BME280;65652;53.132;18.026;2023-04-12T11:53:27;100383.71;;;11.74;67.16
76728;BME280;65652;53.132;18.026;2023-04-12T11:55:56;100380.27;;;11.93;66.58
76728;BME280;65652;53.132;18.026;2023-04-12T11:58:26;100376.98;;;12.10;66.43
76728;BME280;65652;53.132;18.026;2023-04-12T12:00:53;100374.87;;;12.19;64.88
76728;BME280;65652;53.132;18.026;2023-04-12T12:03:22;100367.56;;;12.23;65.02
76728;BME280;65652;53.132;18.026;2023-04-12T12:05:48;100366.58;;;12.27;65.27
76728;BME280;65652;53.132;18.026;2023-04-12T12:08:15;100365.54;;;12.40;65.04
76728;BME280;65652;53.132;18.026;2023-04-12T12:10:42;100357.69;;;12.47;64.53
76728;BME280;65652;53.132;18.026;2023-04-12T12:13:09;100350.23;;;12.55;64.83
76728;BME280;65652;53.132;18.026;2023-04-12T12:15:36;100347.73;;;12.63;64.41
76728;BME280;65652;53.132;18.026;2023-04-12T12:18:06;100348.39;;;12.67;64.52
76728;BME280;65652;53.132;18.026;2023-04-12T12:20:39;100346.54;;;12.67;63.71
76728;BME280;65652;53.132;18.026;2023-04-12T12:23:06;100342.69;;;12.63;63.92
76728;BME280;65652;53.132;18.026;2023-04-12T12:25:32;100340.70;;;12.59;63.39
76728;BME280;65652;53.132;18.026;2023-04-12T12:27:59;100336.81;;;12.57;63.27
76728;BME280;65652;53.132;18.026;2023-04-12T12:30:28;100334.52;;;12.53;63.23
76728;BME280;65652;53.132;18.026;2023-04-12T12:32:55;100332.17;;;12.52;63.36
76728;BME280;65652;53.132;18.026;2023-04-12T12:35:21;100328.22;;;12.53;63.36
76728;BME280;65652;53.132;18.026;2023-04-12T12:37:49;100328.82;;;12.57;63.40
76728;BME280;65652;53.132;18.026;2023-04-12T12:40:17;100322.30;;;12.67;63.39
76728;BME280;65652;53.132;18.026;2023-04-12T12:42:50;100317.41;;;12.77;62.91
76728;BME280;65652;53.132;18.026;2023-04-12T12:45:19;100319.92;;;12.83;62.67
76728;BME280;65652;53.132;18.026;2023-04-12T12:47:57;100313.30;;;12.88;62.54
76728;BME280;65652;53.132;18.026;2023-04-12T12:50:25;100311.87;;;12.89;62.52
76728;BME280;65652;53.132;18.026;2023-04-12T12:52:53;100308.02;;;12.89;62.36
76728;BME280;65652;53.132;18.026;2023-04-12T12:55:20;100305.67;;;12.88;62.30
76728;BME280;65652;53.132;18.026;2023-04-12T12:57:48;100305.23;;;12.88;62.04
76728;BME280;65652;53.132;18.026;2023-04-12T13:00:15;100297.58;;;12.88;62.24
76728;BME280;65652;53.132;18.026;2023-04-12T13:02:41;100297.52;;;12.89;62.08
76728;BME280;65652;53.132;18.026;2023-04-12T13:05:08;100297.90;;;12.87;61.87
76728;BME280;65652;53.132;18.026;2023-04-12T13:07:35;100296.07;;;12.86;61.86
76728;BME280;65652;53.132;18.026;2023-04-12T13:10:02;100290.08;;;12.80;61.52
76728;BME280;65652;53.132;18.026;2023-04-12T13:12:29;100284.00;;;12.74;61.91